createdAt,value
2018-09-05T00:00:48.883Z,15.47
2018-09-05T00:03:16.001Z,15.64
2018-09-05T00:05:43.144Z,15.66
2018-09-05T00:08:10.335Z,15.74
2018-09-05T00:10:37.452Z,15.71
2018-09-05T00:13:05.129Z,15.75
2018-09-05T00:15:32.246Z,15.92
2018-09-05T00:17:59.404Z,15.79
2018-09-05T00:20:26.550Z,15.72
2018-09-05T00:22:53.660Z,15.68
2018-09-05T00:25:20.797Z,15.60
2018-09-05T00:27:47.969Z,15.21
2018-09-05T00:30:15.116Z,15.04
2018-09-05T00:32:42.253Z,14.66
2018-09-05T00:35:09.560Z,14.52
2018-09-05T00:37:36.696Z,14.69
2018-09-05T00:40:04.228Z,14.88
2018-09-05T00:42:31.397Z,15.02
2018-09-05T00:44:58.595Z,15.12
2018-09-05T00:47:25.803Z,15.16
2018-09-05T00:49:57.504Z,15.16
2018-09-05T00:52:24.668Z,15.10
2018-09-05T00:54:51.800Z,14.66
2018-09-05T00:57:19.964Z,14.67
2018-09-05T00:59:47.104Z,14.55
2018-09-05T01:02:14.241Z,14.74
2018-09-05T01:04:41.452Z,14.83
2018-09-05T01:07:19.354Z,14.88
2018-09-05T01:09:46.487Z,14.97
2018-09-05T01:12:13.557Z,14.89
2018-09-05T01:14:40.697Z,15.00
2018-09-05T01:17:07.852Z,14.96
2018-09-05T01:19:34.953Z,14.79
2018-09-05T01:22:02.129Z,14.81
2018-09-05T01:24:29.338Z,14.84
2018-09-05T01:26:56.451Z,14.79
2018-09-05T01:29:23.636Z,14.88
2018-09-05T01:31:50.804Z,14.88
2018-09-05T01:34:18.731Z,14.85
2018-09-05T01:36:45.907Z,14.83
2018-09-05T01:39:13.023Z,14.46
2018-09-05T01:41:40.248Z,14.51
2018-09-05T01:44:07.395Z,14.61
2018-09-05T01:46:34.551Z,14.66
2018-09-05T01:49:01.736Z,14.63
2018-09-05T01:51:32.061Z,14.65
2018-09-05T01:53:59.152Z,14.54
2018-09-05T01:56:26.280Z,14.52
2018-09-05T01:58:53.397Z,14.47
2018-09-05T02:01:20.536Z,14.46
2018-09-05T02:03:47.693Z,14.41
2018-09-05T02:06:14.814Z,14.47
2018-09-05T02:08:41.981Z,14.29
2018-09-05T02:11:09.289Z,14.20
2018-09-05T02:13:36.554Z,14.28
2018-09-05T02:16:03.675Z,14.31
2018-09-05T02:18:30.816Z,14.29
2018-09-05T02:20:58.008Z,14.30
2018-09-05T02:23:25.157Z,14.29
2018-09-05T02:25:52.456Z,14.12
2018-09-05T02:28:19.549Z,13.85
2018-09-05T02:30:46.714Z,13.73
2018-09-05T02:33:13.852Z,13.74
2018-09-05T02:35:40.993Z,13.83
2018-09-05T02:38:08.192Z,13.98
2018-09-05T02:40:35.378Z,13.99
2018-09-05T02:43:02.446Z,14.02
2018-09-05T02:45:29.655Z,13.99
2018-09-05T02:47:56.784Z,14.07
2018-09-05T02:50:23.940Z,14.02
2018-09-05T02:52:51.245Z,13.97
2018-09-05T02:55:24.129Z,13.86
2018-09-05T02:57:51.294Z,13.84
2018-09-05T03:00:18.360Z,13.80
2018-09-05T03:02:45.521Z,13.89
2018-09-05T03:05:12.633Z,14.01
2018-09-05T03:07:39.763Z,13.93
2018-09-05T03:10:06.983Z,13.93
2018-09-05T03:12:34.132Z,13.69
2018-09-05T03:15:01.188Z,13.87
2018-09-05T03:17:28.466Z,13.85
2018-09-05T03:19:55.557Z,13.53
2018-09-05T03:22:22.835Z,13.38
2018-09-05T03:24:50.269Z,13.46
2018-09-05T03:27:17.357Z,13.64
2018-09-05T03:29:44.576Z,13.63
2018-09-05T03:32:11.794Z,13.72
2018-09-05T03:34:38.924Z,13.83
2018-09-05T03:37:06.164Z,13.71
2018-09-05T03:39:33.250Z,13.63
2018-09-05T03:42:00.389Z,13.67
2018-09-05T03:44:27.472Z,13.70
2018-09-05T03:46:54.624Z,13.67
2018-09-05T03:49:21.780Z,13.70
2018-09-05T03:51:49.064Z,13.73
2018-09-05T03:54:16.240Z,13.51
2018-09-05T03:56:43.381Z,13.70
2018-09-05T03:59:10.564Z,13.73
2018-09-05T04:01:37.673Z,13.55
2018-09-05T04:04:05.015Z,13.59
2018-09-05T04:06:32.139Z,13.60
2018-09-05T04:08:59.274Z,13.56
2018-09-05T04:11:26.519Z,13.51
2018-09-05T04:13:53.667Z,13.54
2018-09-05T04:16:20.876Z,13.51
2018-09-05T04:18:48.220Z,13.26
2018-09-05T04:21:15.403Z,13.45
2018-09-05T04:23:45.264Z,13.43
2018-09-05T04:26:13.161Z,13.40
2018-09-05T04:28:40.471Z,13.43
2018-09-05T04:31:08.847Z,13.44
2018-09-05T04:33:35.972Z,13.43
2018-09-05T04:36:03.123Z,13.46
2018-09-05T04:38:30.256Z,13.52
2018-09-05T04:40:57.406Z,13.47
2018-09-05T04:43:24.508Z,13.48
2018-09-05T04:45:51.629Z,13.50
2018-09-05T04:48:19.173Z,13.56
2018-09-05T04:50:46.386Z,13.59
2018-09-05T04:53:13.544Z,13.26
2018-09-05T04:55:40.774Z,13.33
2018-09-05T04:58:07.918Z,13.34
2018-09-05T05:00:35.071Z,13.41
2018-09-05T05:03:02.212Z,13.23
2018-09-05T05:05:29.438Z,13.51
2018-09-05T05:07:56.493Z,13.45
2018-09-05T05:10:23.680Z,13.40
2018-09-05T05:12:50.779Z,13.43
2018-09-05T05:15:18.025Z,13.36
2018-09-05T05:17:45.174Z,13.23
2018-09-05T05:20:12.330Z,13.17
2018-09-05T05:22:39.561Z,13.10
2018-09-05T05:25:06.789Z,13.20
2018-09-05T05:27:33.996Z,13.15
2018-09-05T05:30:01.168Z,13.24
2018-09-05T05:32:28.356Z,13.33
2018-09-05T05:34:55.457Z,13.26
2018-09-05T05:37:22.633Z,13.29
2018-09-05T05:39:49.774Z,13.42
2018-09-05T05:42:17.957Z,13.41
2018-09-05T05:44:45.245Z,13.55
2018-09-05T05:47:12.397Z,13.54
2018-09-05T05:49:39.597Z,13.54
2018-09-05T05:52:06.804Z,13.54
2018-09-05T05:54:33.945Z,13.54
2018-09-05T05:57:01.111Z,13.59
2018-09-05T05:59:28.278Z,13.63
2018-09-05T06:01:55.443Z,13.69
2018-09-05T06:04:22.728Z,13.83
2018-09-05T06:06:49.819Z,13.98
2018-09-05T06:09:17.048Z,14.00
2018-09-05T06:11:44.352Z,13.99
2018-09-05T06:14:11.437Z,13.97
2018-09-05T06:16:38.575Z,13.95
2018-09-05T06:19:05.775Z,13.85
2018-09-05T06:21:32.932Z,14.05
2018-09-05T06:24:00.129Z,14.17
2018-09-05T06:26:27.313Z,14.34
2018-09-05T06:28:54.463Z,14.39
2018-09-05T06:31:21.800Z,14.51
2018-09-05T06:33:48.848Z,14.59
2018-09-05T06:36:16.012Z,14.65
2018-09-05T06:38:43.233Z,14.64
2018-09-05T06:41:10.349Z,14.87
2018-09-05T06:43:37.469Z,14.87
2018-09-05T06:46:04.740Z,15.08
2018-09-05T06:48:31.869Z,15.08
2018-09-05T06:51:05.702Z,15.19
2018-09-05T06:53:32.916Z,15.28
2018-09-05T06:56:00.215Z,15.28
2018-09-05T06:58:27.508Z,15.22
2018-09-05T07:00:54.644Z,15.42
2018-09-05T07:03:22.408Z,15.35
2018-09-05T07:05:49.720Z,15.26
2018-09-05T07:08:16.836Z,15.30
2018-09-05T07:10:44.109Z,15.56
2018-09-05T07:13:11.304Z,15.68
2018-09-05T07:15:38.440Z,15.73
2018-09-05T07:18:05.609Z,15.85
2018-09-05T07:20:32.758Z,15.84
2018-09-05T07:22:59.856Z,15.98
2018-09-05T07:25:27.131Z,16.04
2018-09-05T07:27:54.352Z,15.96
2018-09-05T07:30:21.637Z,16.03
2018-09-05T07:32:49.039Z,16.21
2018-09-05T07:35:16.153Z,16.35
2018-09-05T07:37:43.365Z,16.46
2018-09-05T07:40:10.593Z,16.85
2018-09-05T07:42:37.732Z,16.93
2018-09-05T07:45:05.013Z,17.34
2018-09-05T07:47:32.196Z,17.53
2018-09-05T07:49:59.309Z,17.72
2018-09-05T07:52:26.642Z,17.79
2018-09-05T07:54:54.006Z,17.82
2018-09-05T07:57:21.141Z,17.91
2018-09-05T07:59:48.478Z,18.26
2018-09-05T08:02:15.614Z,18.31
2018-09-05T08:04:42.848Z,18.59
2018-09-05T08:07:10.039Z,18.65
2018-09-05T08:09:37.213Z,18.61
2018-09-05T08:12:04.527Z,18.68
2018-09-05T08:14:31.760Z,18.86
2018-09-05T08:16:58.873Z,18.97
2018-09-05T08:19:26.136Z,18.94
2018-09-05T08:21:53.404Z,19.10
2018-09-05T08:24:20.638Z,19.18
2018-09-05T08:26:47.771Z,19.16
2018-09-05T08:29:15.036Z,19.16
2018-09-05T08:31:49.155Z,19.36
2018-09-05T08:34:16.509Z,19.42
2018-09-05T08:36:43.876Z,19.71
2018-09-05T08:39:12.901Z,19.72
2018-09-05T08:41:40.131Z,19.72
2018-09-05T08:44:07.421Z,19.71
2018-09-05T08:46:34.469Z,19.68
2018-09-05T08:49:01.645Z,19.77
2018-09-05T08:51:28.748Z,19.93
2018-09-05T08:53:56.088Z,20.04
2018-09-05T08:56:23.365Z,20.02
2018-09-05T08:58:50.509Z,19.55
2018-09-05T09:01:17.708Z,19.86
2018-09-05T09:03:44.868Z,19.88
2018-09-05T09:06:11.969Z,20.08
2018-09-05T09:08:39.136Z,20.02
2018-09-05T09:11:06.348Z,20.14
2018-09-05T09:13:33.480Z,20.40
2018-09-05T09:16:00.622Z,20.29
2018-09-05T09:18:27.859Z,20.73
2018-09-05T09:20:54.955Z,20.94
2018-09-05T09:23:22.200Z,20.96
2018-09-05T09:25:49.508Z,21.11
2018-09-05T09:28:16.643Z,21.18
2018-09-05T09:30:43.883Z,21.15
2018-09-05T09:33:11.038Z,21.20
2018-09-05T09:35:38.278Z,21.48
2018-09-05T09:38:05.489Z,21.80
2018-09-05T09:40:32.651Z,21.76
2018-09-05T09:42:59.809Z,21.82
2018-09-05T09:45:26.949Z,21.81
2018-09-05T09:47:54.100Z,21.96
2018-09-05T09:50:21.489Z,22.08
2018-09-05T09:52:48.626Z,22.00
2018-09-05T09:55:15.720Z,22.15
2018-09-05T09:57:49.779Z,22.33
2018-09-05T10:00:22.748Z,22.36
2018-09-05T10:02:55.858Z,22.40
2018-09-05T10:05:28.499Z,22.53
2018-09-05T10:08:01.230Z,22.60
2018-09-05T10:10:34.189Z,22.67
2018-09-05T10:13:06.976Z,22.67
2018-09-05T10:15:39.761Z,22.78
2018-09-05T10:18:12.568Z,22.71
2018-09-05T10:20:39.696Z,22.91
2018-09-05T10:23:06.916Z,22.90
2018-09-05T10:25:34.181Z,23.00
2018-09-05T10:28:01.332Z,23.17
2018-09-05T10:30:28.500Z,23.32
2018-09-05T10:32:55.624Z,23.41
2018-09-05T10:35:23.428Z,23.44
2018-09-05T10:37:50.729Z,23.40
2018-09-05T10:40:18.125Z,23.63
2018-09-05T10:42:45.240Z,23.42
2018-09-05T10:45:12.600Z,23.86
2018-09-05T10:47:39.709Z,24.04
2018-09-05T10:50:06.831Z,23.68
2018-09-05T10:52:34.176Z,23.83
2018-09-05T10:55:01.273Z,24.09
2018-09-05T10:57:28.486Z,24.16
2018-09-05T10:59:55.740Z,24.45
2018-09-05T11:02:22.990Z,24.39
2018-09-05T11:04:50.256Z,24.31
2018-09-05T11:07:17.680Z,24.32
2018-09-05T11:09:44.813Z,24.33
2018-09-05T11:12:12.051Z,24.32
2018-09-05T11:14:39.241Z,24.23
2018-09-05T11:17:06.371Z,24.80
2018-09-05T11:19:34.532Z,25.30
2018-09-05T11:22:01.724Z,25.57
2018-09-05T11:24:28.939Z,25.48
2018-09-05T11:26:56.201Z,25.46
2018-09-05T11:29:23.472Z,25.63
2018-09-05T11:31:50.750Z,25.71
2018-09-05T11:34:18.279Z,25.27
2018-09-05T11:36:45.568Z,25.50
2018-09-05T11:39:13.527Z,25.49
2018-09-05T11:41:40.699Z,25.09
2018-09-05T11:44:07.882Z,25.04
2018-09-05T11:46:35.397Z,25.58
2018-09-05T11:49:02.633Z,26.26
2018-09-05T11:51:29.958Z,26.55
2018-09-05T11:53:57.056Z,26.68
2018-09-05T11:56:24.206Z,26.66
2018-09-05T11:58:51.309Z,26.87
2018-09-05T12:01:18.509Z,27.09
2018-09-05T12:03:45.825Z,27.04
2018-09-05T12:06:12.957Z,26.98
2018-09-05T12:08:40.089Z,26.95
2018-09-05T12:11:07.304Z,27.00
2018-09-05T12:13:34.449Z,27.00
2018-09-05T12:16:01.648Z,27.15
2018-09-05T12:18:28.911Z,27.30
2018-09-05T12:20:56.040Z,26.85
2018-09-05T12:23:23.260Z,27.60
2018-09-05T12:25:50.469Z,27.95
2018-09-05T12:28:17.669Z,28.03
2018-09-05T12:30:44.932Z,27.89
2018-09-05T12:33:12.117Z,27.74
2018-09-05T12:35:39.251Z,27.79
2018-09-05T12:38:06.551Z,28.09
2018-09-05T12:40:33.679Z,27.90
2018-09-05T12:43:00.866Z,28.38
2018-09-05T12:45:28.036Z,27.80
2018-09-05T12:47:55.196Z,28.38
2018-09-05T12:50:22.429Z,28.66
2018-09-05T12:52:49.565Z,29.00
2018-09-05T12:55:16.715Z,28.85
2018-09-05T12:57:43.943Z,29.01
2018-09-05T13:00:11.161Z,28.24
2018-09-05T13:02:38.334Z,28.09
2018-09-05T13:05:05.923Z,28.99
2018-09-05T13:07:33.320Z,29.44
2018-09-05T13:10:00.501Z,29.17
2018-09-05T13:12:27.736Z,29.22
2018-09-05T13:14:54.860Z,29.28
2018-09-05T13:17:22.047Z,29.78
2018-09-05T13:19:49.200Z,29.59
2018-09-05T13:22:16.337Z,28.73
2018-09-05T13:24:43.560Z,28.98
2018-09-05T13:27:10.682Z,28.66
2018-09-05T13:29:37.810Z,29.44
2018-09-05T13:32:05.066Z,30.30
2018-09-05T13:34:32.205Z,30.31
2018-09-05T13:37:00.485Z,30.41
2018-09-05T13:39:27.810Z,29.40
2018-09-05T13:41:54.970Z,29.51
2018-09-05T13:44:22.188Z,29.88
2018-09-05T13:46:49.364Z,30.18
2018-09-05T13:49:16.569Z,30.31
2018-09-05T13:51:48.357Z,30.14
2018-09-05T13:54:15.522Z,28.94
2018-09-05T13:56:42.833Z,27.49
2018-09-05T13:59:10.043Z,27.27
2018-09-05T14:01:37.194Z,26.86
2018-09-05T14:04:04.458Z,26.21
2018-09-05T14:06:31.633Z,26.39
2018-09-05T14:08:58.777Z,26.48
2018-09-05T14:11:25.972Z,26.01
2018-09-05T14:13:53.132Z,26.42
2018-09-05T14:16:20.373Z,26.88
2018-09-05T14:18:47.632Z,27.56
2018-09-05T14:21:14.754Z,27.78
2018-09-05T14:23:42.026Z,27.06
2018-09-05T14:26:09.165Z,27.23
2018-09-05T14:28:36.376Z,27.57
2018-09-05T14:31:03.700Z,26.95
2018-09-05T14:33:30.912Z,27.43
2018-09-05T14:35:58.124Z,27.63
2018-09-05T14:38:25.315Z,26.75
2018-09-05T14:40:52.507Z,26.61
2018-09-05T14:43:19.669Z,26.48
2018-09-05T14:45:47.258Z,26.40
2018-09-05T14:48:14.475Z,26.83
2018-09-05T14:50:41.666Z,27.26
2018-09-05T14:53:08.881Z,27.83
2018-09-05T14:55:36.082Z,28.55
2018-09-05T14:58:03.312Z,28.92
2018-09-05T15:00:30.482Z,28.77
2018-09-05T15:02:57.761Z,28.45
2018-09-05T15:05:25.182Z,28.42
2018-09-05T15:07:52.392Z,29.27
2018-09-05T15:10:19.609Z,29.73
2018-09-05T15:12:46.964Z,29.75
2018-09-05T15:15:14.565Z,29.01
2018-09-05T15:17:41.889Z,29.13
2018-09-05T15:20:10.066Z,29.13
2018-09-05T15:22:37.337Z,28.51
2018-09-05T15:25:05.608Z,29.06
2018-09-05T15:27:32.748Z,29.59
2018-09-05T15:29:59.941Z,29.81
2018-09-05T15:32:27.161Z,29.96
2018-09-05T15:34:54.857Z,29.78
2018-09-05T15:37:22.046Z,29.32
2018-09-05T15:39:49.173Z,30.33
2018-09-05T15:42:16.604Z,29.80
2018-09-05T15:44:43.760Z,29.39
2018-09-05T15:47:11.076Z,29.44
2018-09-05T15:49:38.338Z,30.44
2018-09-05T15:52:05.528Z,29.95
2018-09-05T15:54:32.708Z,29.69
2018-09-05T15:57:00.065Z,30.61
2018-09-05T15:59:27.173Z,30.26
2018-09-05T16:01:54.636Z,28.93
2018-09-05T16:04:22.881Z,27.85
2018-09-05T16:06:50.036Z,27.75
2018-09-05T16:09:17.256Z,27.04
2018-09-05T16:11:44.484Z,27.17
2018-09-05T16:14:11.671Z,26.55
2018-09-05T16:16:38.909Z,26.22
2018-09-05T16:19:06.072Z,26.19
2018-09-05T16:21:33.284Z,25.85
2018-09-05T16:24:00.542Z,25.95
2018-09-05T16:26:27.715Z,25.61
2018-09-05T16:28:55.016Z,25.69
2018-09-05T16:31:22.411Z,25.67
2018-09-05T16:33:49.593Z,25.67
2018-09-05T16:36:16.928Z,25.39
2018-09-05T16:38:45.490Z,25.35
2018-09-05T16:41:12.658Z,25.42
2018-09-05T16:43:40.669Z,25.49
2018-09-05T16:46:07.929Z,25.27
2018-09-05T16:48:35.168Z,25.19
2018-09-05T16:51:02.300Z,24.97
2018-09-05T16:53:29.504Z,24.95
2018-09-05T16:55:56.692Z,24.80
2018-09-05T16:58:23.916Z,24.76
2018-09-05T17:00:51.318Z,24.62
2018-09-05T17:03:18.574Z,24.61
2018-09-05T17:05:45.758Z,24.51
2018-09-05T17:08:13.031Z,24.41
2018-09-05T17:10:40.204Z,24.46
2018-09-05T17:13:07.509Z,24.22
2018-09-05T17:15:34.845Z,24.03
2018-09-05T17:18:02.000Z,23.89
2018-09-05T17:20:29.298Z,23.76
2018-09-05T17:22:56.503Z,23.61
2018-09-05T17:25:23.649Z,23.44
2018-09-05T17:27:51.024Z,23.35
2018-09-05T17:30:18.300Z,23.18
2018-09-05T17:32:45.440Z,23.02
2018-09-05T17:35:12.785Z,22.78
2018-09-05T17:37:40.038Z,22.57
2018-09-05T17:40:07.309Z,22.38
2018-09-05T17:42:34.457Z,22.24
2018-09-05T17:45:01.847Z,22.20
2018-09-05T17:47:29.050Z,22.05
2018-09-05T17:49:56.436Z,22.00
2018-09-05T17:52:23.548Z,21.95
2018-09-05T17:54:50.890Z,21.69
2018-09-05T17:57:18.244Z,21.48
2018-09-05T17:59:45.344Z,21.61
2018-09-05T18:02:12.497Z,21.53
2018-09-05T18:04:39.633Z,21.60
2018-09-05T18:07:06.785Z,21.61
2018-09-05T18:09:34.083Z,21.29
2018-09-05T18:12:01.277Z,21.24
2018-09-05T18:14:28.589Z,21.03
2018-09-05T18:16:55.857Z,20.83
2018-09-05T18:19:23.066Z,20.36
2018-09-05T18:21:50.469Z,20.55
2018-09-05T18:24:17.978Z,20.49
2018-09-05T18:26:45.084Z,20.65
2018-09-05T18:29:12.279Z,20.73
2018-09-05T18:31:39.520Z,20.01
2018-09-05T18:34:06.659Z,19.85
2018-09-05T18:36:33.826Z,20.00
2018-09-05T18:39:01.033Z,19.97
2018-09-05T18:41:28.804Z,19.94
2018-09-05T18:43:56.055Z,19.58
2018-09-05T18:46:23.471Z,19.59
2018-09-05T18:48:50.681Z,19.45
2018-09-05T18:51:18.164Z,19.61
2018-09-05T18:53:45.297Z,19.39
2018-09-05T18:56:12.521Z,19.45
2018-09-05T18:58:39.710Z,19.38
2018-09-05T19:01:06.869Z,19.26
2018-09-05T19:03:34.475Z,19.51
2018-09-05T19:06:01.704Z,19.10
2018-09-05T19:08:28.873Z,18.85
2018-09-05T19:10:56.138Z,18.65
2018-09-05T19:13:23.323Z,18.69
2018-09-05T19:15:50.460Z,18.80
2018-09-05T19:18:17.831Z,18.73
2018-09-05T19:20:45.057Z,18.45
2018-09-05T19:23:12.253Z,18.10
2018-09-05T19:25:39.532Z,18.24
2018-09-05T19:28:13.382Z,17.93
2018-09-05T19:30:42.240Z,18.22
2018-09-05T19:33:09.529Z,18.36
2018-09-05T19:35:36.845Z,18.29
2018-09-05T19:38:04.055Z,18.44
2018-09-05T19:40:31.317Z,18.48
2018-09-05T19:42:58.594Z,18.42
2018-09-05T19:45:25.764Z,18.60
2018-09-05T19:47:53.261Z,18.68
2018-09-05T19:50:20.502Z,18.67
2018-09-05T19:52:47.676Z,18.65
2018-09-05T19:55:16.038Z,18.05
2018-09-05T19:57:43.365Z,17.94
2018-09-05T20:00:10.685Z,18.18
2018-09-05T20:02:37.889Z,18.17
2018-09-05T20:05:05.358Z,18.32
2018-09-05T20:07:32.621Z,18.42
2018-09-05T20:09:59.777Z,18.13
2018-09-05T20:12:26.983Z,17.50
2018-09-05T20:14:54.088Z,17.50
2018-09-05T20:17:21.349Z,17.39
2018-09-05T20:19:48.473Z,17.74
2018-09-05T20:22:15.701Z,17.77
2018-09-05T20:24:42.937Z,17.91
2018-09-05T20:27:10.237Z,17.97
2018-09-05T20:29:37.597Z,18.00
2018-09-05T20:32:05.096Z,17.88
2018-09-05T20:34:32.251Z,17.81
2018-09-05T20:36:59.508Z,17.31
2018-09-05T20:39:26.651Z,16.83
2018-09-05T20:41:53.781Z,17.29
2018-09-05T20:44:21.055Z,17.09
2018-09-05T20:46:48.217Z,16.98
2018-09-05T20:49:15.461Z,16.90
2018-09-05T20:51:42.771Z,16.84
2018-09-05T20:54:09.920Z,16.89
2018-09-05T20:56:37.161Z,16.92
2018-09-05T20:59:04.632Z,16.69
2018-09-05T21:01:31.821Z,16.74
2018-09-05T21:03:59.013Z,16.80
2018-09-05T21:06:26.189Z,16.79
2018-09-05T21:08:53.327Z,17.03
2018-09-05T21:11:20.517Z,17.21
2018-09-05T21:13:47.626Z,17.05
2018-09-05T21:16:15.265Z,16.59
2018-09-05T21:18:42.517Z,16.52
2018-09-05T21:21:09.648Z,16.64
2018-09-05T21:23:36.893Z,16.79
2018-09-05T21:26:04.060Z,16.47
2018-09-05T21:28:31.229Z,16.18
2018-09-05T21:30:58.406Z,16.18
2018-09-05T21:33:25.620Z,16.38
2018-09-05T21:35:52.776Z,16.47
2018-09-05T21:38:20.050Z,16.52
2018-09-05T21:40:47.180Z,16.65
2018-09-05T21:43:14.414Z,16.70
2018-09-05T21:45:41.735Z,16.44
2018-09-05T21:48:08.922Z,16.39
2018-09-05T21:50:36.199Z,16.31
2018-09-05T21:53:03.847Z,16.57
2018-09-05T21:55:31.037Z,16.40
2018-09-05T21:57:58.332Z,16.44
2018-09-05T22:00:25.545Z,16.50
2018-09-05T22:02:52.701Z,16.06
2018-09-05T22:05:19.859Z,16.04
2018-09-05T22:07:47.021Z,16.09
2018-09-05T22:10:14.190Z,16.16
2018-09-05T22:12:41.364Z,16.03
2018-09-05T22:15:08.536Z,16.09
2018-09-05T22:17:35.787Z,16.21
2018-09-05T22:20:02.999Z,16.31
2018-09-05T22:22:30.115Z,16.37
2018-09-05T22:24:57.331Z,16.33
2018-09-05T22:27:24.513Z,16.32
2018-09-05T22:29:51.652Z,16.03
2018-09-05T22:32:19.048Z,15.61
2018-09-05T22:34:46.129Z,15.34
2018-09-05T22:37:13.220Z,15.26
2018-09-05T22:39:40.449Z,15.35
2018-09-05T22:42:07.646Z,15.11
2018-09-05T22:44:46.209Z,15.34
2018-09-05T22:47:24.945Z,15.51
2018-09-05T22:50:07.839Z,15.63
2018-09-05T22:54:56.228Z,15.75
2018-09-05T22:57:40.471Z,15.82
2018-09-05T23:04:28.724Z,15.58
2018-09-05T23:09:10.536Z,15.22
2018-09-05T23:11:49.916Z,15.43
2018-09-05T23:14:28.509Z,14.98
2018-09-05T23:19:24.608Z,14.94
2018-09-05T23:21:51.704Z,15.14
2018-09-05T23:24:18.884Z,15.14
2018-09-05T23:26:46.199Z,14.76
2018-09-05T23:29:13.361Z,14.77
2018-09-05T23:31:40.506Z,14.90
2018-09-05T23:34:07.753Z,15.07
2018-09-05T23:36:34.878Z,15.12
2018-09-05T23:39:02.152Z,14.90
2018-09-05T23:41:29.296Z,14.68
2018-09-05T23:43:56.364Z,14.90
2018-09-05T23:46:23.549Z,15.11
2018-09-05T23:48:50.685Z,14.89
2018-09-05T23:51:17.862Z,14.86
2018-09-05T23:53:44.990Z,15.10
2018-09-05T23:56:12.145Z,14.99
2018-09-05T23:58:39.452Z,14.94
